createdAt,value
2019-05-15T00:00:39.875Z,50.00
2019-05-15T00:03:08.652Z,50.10
2019-05-15T00:05:38.954Z,49.60
2019-05-15T00:08:09.305Z,49.20
2019-05-15T00:10:39.055Z,49.30
2019-05-15T00:13:09.295Z,49.40
2019-05-15T00:15:40.194Z,49.60
2019-05-15T00:18:08.991Z,49.00
2019-05-15T00:20:39.512Z,49.10
2019-05-15T00:23:08.560Z,48.50
2019-05-15T00:25:39.323Z,48.40
2019-05-15T00:28:09.505Z,47.60
2019-05-15T00:30:39.087Z,47.80
2019-05-15T00:33:09.111Z,47.40
2019-05-15T00:35:39.365Z,47.50
2019-05-15T00:38:09.332Z,47.50
2019-05-15T00:40:39.115Z,47.40
2019-05-15T00:43:08.937Z,47.00
2019-05-15T00:45:38.589Z,47.30
2019-05-15T00:48:08.935Z,47.10
2019-05-15T00:50:39.332Z,47.30
2019-05-15T00:53:08.677Z,47.30
2019-05-15T00:55:38.722Z,47.50
2019-05-15T00:58:08.690Z,47.90
2019-05-15T01:00:43.125Z,47.60
2019-05-15T01:03:11.808Z,48.00
2019-05-15T01:05:40.637Z,47.70
2019-05-15T01:08:09.307Z,47.70
2019-05-15T01:10:38.757Z,48.10
2019-05-15T01:13:08.479Z,48.10
2019-05-15T01:15:38.810Z,48.20
2019-05-15T01:18:09.380Z,48.40
2019-05-15T01:20:39.079Z,48.30
2019-05-15T01:23:09.132Z,48.40
2019-05-15T01:25:38.959Z,48.70
2019-05-15T01:28:09.552Z,48.90
2019-05-15T01:30:39.273Z,48.60
2019-05-15T01:33:08.451Z,48.60
2019-05-15T01:35:38.287Z,48.90
2019-05-15T01:38:08.174Z,49.00
2019-05-15T01:40:38.675Z,49.50
2019-05-15T01:43:09.178Z,49.80
2019-05-15T01:45:39.381Z,49.30
2019-05-15T01:48:08.232Z,49.20
2019-05-15T01:50:38.678Z,49.60
2019-05-15T01:53:08.284Z,49.70
2019-05-15T01:55:39.600Z,50.20
2019-05-15T01:58:09.056Z,50.30
2019-05-15T02:00:39.131Z,50.40
2019-05-15T02:03:09.668Z,50.30
2019-05-15T02:05:39.284Z,50.80
2019-05-15T02:08:08.478Z,50.60
2019-05-15T02:10:39.139Z,51.20
2019-05-15T02:13:08.514Z,50.90
2019-05-15T02:15:39.484Z,50.90
2019-05-15T02:18:08.600Z,51.10
2019-05-15T02:20:38.926Z,51.50
2019-05-15T02:23:11.418Z,51.50
2019-05-15T02:25:38.774Z,51.70
2019-05-15T02:28:09.311Z,51.70
2019-05-15T02:30:40.118Z,51.80
2019-05-15T02:33:10.488Z,52.20
2019-05-15T02:35:39.544Z,52.30
2019-05-15T02:38:10.321Z,52.60
2019-05-15T02:40:40.783Z,52.50
2019-05-15T02:43:10.233Z,52.70
2019-05-15T02:45:42.283Z,52.90
2019-05-15T02:48:09.245Z,53.00
2019-05-15T02:50:39.165Z,52.80
2019-05-15T02:53:10.053Z,53.00
2019-05-15T02:55:40.377Z,52.90
2019-05-15T02:58:09.873Z,52.90
2019-05-15T03:00:47.658Z,53.60
2019-05-15T03:03:10.785Z,53.50
2019-05-15T03:05:41.399Z,53.80
2019-05-15T03:08:09.986Z,54.10
2019-05-15T03:10:40.563Z,54.30
2019-05-15T03:13:09.733Z,54.30
2019-05-15T03:15:40.157Z,54.30
2019-05-15T03:18:09.861Z,54.40
2019-05-15T03:20:39.346Z,54.50
2019-05-15T03:23:09.774Z,54.60
2019-05-15T03:25:40.579Z,54.50
2019-05-15T03:28:10.475Z,54.70
2019-05-15T03:31:06.927Z,54.90
2019-05-15T03:33:18.496Z,54.90
2019-05-15T03:35:42.865Z,54.80
2019-05-15T03:38:10.485Z,55.20
2019-05-15T03:40:39.996Z,55.40
2019-05-15T03:43:09.874Z,55.50
2019-05-15T03:45:40.373Z,56.20
2019-05-15T03:48:09.361Z,56.70
2019-05-15T03:50:40.297Z,56.10
2019-05-15T03:53:10.197Z,56.60
2019-05-15T03:55:40.493Z,56.90
2019-05-15T03:58:10.035Z,56.90
2019-05-15T04:00:39.741Z,57.20
2019-05-15T04:03:10.673Z,57.10
2019-05-15T04:05:39.287Z,57.50
2019-05-15T04:08:11.100Z,57.00
2019-05-15T04:10:40.039Z,57.70
2019-05-15T04:13:09.666Z,57.40
2019-05-15T04:15:39.463Z,57.50
2019-05-15T04:18:09.502Z,57.60
2019-05-15T04:20:40.496Z,57.80
2019-05-15T04:23:10.058Z,57.60
2019-05-15T04:25:39.666Z,56.70
2019-05-15T04:28:10.647Z,57.10
2019-05-15T04:30:39.449Z,56.60
2019-05-15T04:33:09.565Z,56.30
2019-05-15T04:35:40.113Z,56.10
2019-05-15T04:38:09.362Z,56.20
2019-05-15T04:40:39.777Z,55.60
2019-05-15T04:43:10.372Z,55.30
2019-05-15T04:45:39.489Z,55.10
2019-05-15T04:48:09.932Z,54.80
2019-05-15T04:50:39.871Z,55.20
2019-05-15T04:53:10.605Z,54.90
2019-05-15T04:55:40.408Z,54.20
2019-05-15T04:58:10.198Z,54.40
2019-05-15T05:00:53.446Z,54.20
2019-05-15T05:03:22.298Z,53.90
2019-05-15T05:05:51.144Z,53.10
2019-05-15T05:08:20.500Z,53.40
2019-05-15T05:10:49.458Z,53.80
2019-05-15T05:13:19.909Z,52.30
2019-05-15T05:15:50.031Z,52.50
2019-05-15T05:18:18.993Z,52.70
2019-05-15T05:20:48.695Z,52.50
2019-05-15T05:23:19.203Z,52.20
2019-05-15T05:25:49.203Z,51.00
2019-05-15T05:28:18.207Z,51.10
2019-05-15T05:30:48.219Z,51.00
2019-05-15T05:33:18.402Z,50.90
2019-05-15T05:35:48.456Z,50.30
2019-05-15T05:38:19.043Z,50.70
2019-05-15T05:40:49.522Z,50.30
2019-05-15T05:43:18.971Z,49.40
2019-05-15T05:45:49.292Z,50.80
2019-05-15T05:48:18.893Z,50.80
2019-05-15T05:50:49.761Z,49.10
2019-05-15T05:53:17.777Z,49.80
2019-05-15T05:55:49.226Z,48.30
2019-05-15T05:58:19.643Z,48.20
2019-05-15T06:00:49.194Z,48.10
2019-05-15T06:03:19.773Z,46.20
2019-05-15T06:05:49.619Z,46.60
2019-05-15T06:08:19.581Z,44.70
2019-05-15T06:10:49.469Z,44.60
2019-05-15T06:13:21.561Z,44.50
2019-05-15T06:15:50.316Z,45.30
2019-05-15T06:18:19.839Z,44.20
2019-05-15T06:20:49.644Z,43.10
2019-05-15T06:23:23.696Z,44.70
2019-05-15T06:25:49.558Z,44.50
2019-05-15T06:28:19.714Z,44.00
2019-05-15T06:30:48.828Z,43.00
2019-05-15T06:33:18.728Z,42.70
2019-05-15T06:35:48.917Z,42.20
2019-05-15T06:38:19.447Z,42.60
2019-05-15T06:40:49.374Z,41.50
2019-05-15T06:43:19.183Z,41.30
2019-05-15T06:45:49.113Z,40.60
2019-05-15T06:48:18.481Z,41.60
2019-05-15T06:50:49.108Z,41.40
2019-05-15T06:53:19.332Z,39.80
2019-05-15T06:55:48.564Z,40.80
2019-05-15T06:58:19.250Z,37.60
2019-05-15T07:00:48.764Z,37.20
2019-05-15T07:03:24.743Z,37.60
2019-05-15T07:05:50.870Z,35.30
2019-05-15T07:08:18.547Z,35.30
2019-05-15T07:10:49.464Z,35.60
2019-05-15T07:13:18.437Z,35.00
2019-05-15T07:15:49.414Z,36.40
2019-05-15T07:18:19.666Z,37.30
2019-05-15T07:20:49.043Z,34.90
2019-05-15T07:23:18.760Z,35.00
2019-05-15T07:25:49.883Z,35.40
2019-05-15T07:28:18.241Z,34.50
2019-05-15T07:30:49.422Z,36.10
2019-05-15T07:33:28.001Z,36.30
2019-05-15T07:35:49.407Z,34.60
2019-05-15T07:38:18.737Z,35.20
2019-05-15T07:40:54.309Z,35.00
2019-05-15T07:43:18.398Z,33.70
2019-05-15T07:45:53.962Z,34.60
2019-05-15T07:48:18.847Z,35.10
2019-05-15T07:50:49.747Z,33.70
2019-05-15T07:53:19.858Z,34.10
2019-05-15T07:55:50.378Z,34.50
2019-05-15T07:58:21.202Z,34.40
2019-05-15T08:00:49.477Z,33.70
2019-05-15T08:03:18.539Z,33.00
2019-05-15T08:05:57.972Z,32.60
2019-05-15T08:08:18.448Z,33.70
2019-05-15T08:10:49.080Z,33.50
2019-05-15T08:13:18.445Z,33.40
2019-05-15T08:15:48.702Z,33.40
2019-05-15T08:18:18.292Z,33.40
2019-05-15T08:20:48.929Z,32.90
2019-05-15T08:23:19.270Z,32.60
2019-05-15T08:25:48.532Z,32.20
2019-05-15T08:28:18.973Z,32.50
2019-05-15T08:30:49.335Z,32.30
2019-05-15T08:33:18.387Z,31.60
2019-05-15T08:35:51.119Z,31.60
2019-05-15T08:38:18.257Z,32.90
2019-05-15T08:40:48.905Z,31.30
2019-05-15T08:43:18.357Z,31.50
2019-05-15T08:45:49.680Z,31.70
2019-05-15T08:48:18.530Z,32.90
2019-05-15T08:50:48.651Z,31.20
2019-05-15T08:53:19.398Z,31.20
2019-05-15T08:55:48.739Z,30.50
2019-05-15T08:58:20.425Z,31.70
2019-05-15T09:00:52.507Z,30.60
2019-05-15T09:03:18.464Z,30.20
2019-05-15T09:05:48.563Z,31.50
2019-05-15T09:08:19.477Z,31.00
2019-05-15T09:10:50.165Z,30.40
2019-05-15T09:13:18.995Z,30.50
2019-05-15T09:15:49.145Z,30.00
2019-05-15T09:18:20.273Z,29.90
2019-05-15T09:20:49.230Z,29.30
2019-05-15T09:23:19.396Z,29.40
2019-05-15T09:25:49.476Z,29.50
2019-05-15T09:28:19.199Z,29.10
2019-05-15T09:30:48.525Z,29.50
2019-05-15T09:33:19.587Z,28.50
2019-05-15T09:35:49.105Z,29.10
2019-05-15T09:38:18.412Z,29.50
2019-05-15T09:40:50.455Z,28.90
2019-05-15T09:43:18.309Z,28.00
2019-05-15T09:45:49.310Z,28.00
2019-05-15T09:48:19.608Z,28.10
2019-05-15T09:50:49.495Z,28.70
2019-05-15T09:53:18.863Z,28.20
2019-05-15T09:55:49.377Z,28.80
2019-05-15T09:58:20.387Z,28.80
2019-05-15T10:00:52.180Z,28.30
2019-05-15T10:03:19.901Z,28.60
2019-05-15T10:05:48.774Z,29.20
2019-05-15T10:08:17.223Z,28.30
2019-05-15T10:10:45.664Z,29.10
2019-05-15T10:13:14.102Z,28.90
2019-05-15T10:15:42.816Z,27.30
2019-05-15T10:18:11.350Z,28.40
2019-05-15T10:20:39.853Z,28.50
2019-05-15T10:23:08.928Z,28.70
2019-05-15T10:25:38.926Z,28.40
2019-05-15T10:28:09.936Z,29.00
2019-05-15T10:30:39.425Z,29.40
2019-05-15T10:33:08.604Z,29.00
2019-05-15T10:35:39.302Z,29.10
2019-05-15T10:38:08.775Z,28.70
2019-05-15T10:40:39.482Z,30.00
2019-05-15T10:43:09.144Z,29.30
2019-05-15T10:45:42.361Z,29.70
2019-05-15T10:48:09.364Z,29.10
2019-05-15T10:50:38.870Z,29.40
2019-05-15T10:53:10.963Z,27.80
2019-05-15T10:55:39.442Z,28.40
2019-05-15T10:58:16.773Z,28.50
2019-05-15T11:00:38.434Z,28.50
2019-05-15T11:03:08.899Z,29.50
2019-05-15T11:05:45.139Z,30.00
2019-05-15T11:08:08.367Z,30.30
2019-05-15T11:10:41.507Z,30.20
2019-05-15T11:13:08.945Z,29.60
2019-05-15T11:15:40.446Z,30.00
2019-05-15T11:18:09.225Z,30.00
2019-05-15T11:20:40.908Z,30.20
2019-05-15T11:23:09.697Z,29.70
2019-05-15T11:25:38.487Z,29.10
2019-05-15T11:28:08.185Z,28.70
2019-05-15T11:30:39.442Z,28.80
2019-05-15T11:33:09.630Z,29.60
2019-05-15T11:35:40.760Z,29.20
2019-05-15T11:38:10.185Z,29.20
2019-05-15T11:40:38.914Z,28.50
2019-05-15T11:43:08.591Z,28.40
2019-05-15T11:45:39.063Z,28.10
2019-05-15T11:48:09.095Z,28.40
2019-05-15T11:50:40.030Z,28.40
2019-05-15T11:53:08.869Z,28.50
2019-05-15T11:55:38.629Z,28.90
2019-05-15T11:58:09.425Z,28.70
2019-05-15T12:00:38.480Z,28.80
2019-05-15T12:03:09.062Z,28.30
2019-05-15T12:05:38.584Z,28.00
2019-05-15T12:08:09.062Z,28.10
2019-05-15T12:10:38.982Z,28.40
2019-05-15T12:13:09.821Z,28.00
2019-05-15T12:15:38.802Z,28.50
2019-05-15T12:18:08.798Z,28.60
2019-05-15T12:20:39.027Z,28.90
2019-05-15T12:23:08.956Z,29.40
2019-05-15T12:25:39.493Z,29.40
2019-05-15T12:28:09.607Z,29.30
2019-05-15T12:30:40.328Z,29.40
2019-05-15T12:35:40.100Z,28.60
2019-05-15T12:38:10.078Z,28.90
2019-05-15T13:00:40.546Z,28.60
2019-05-15T13:03:09.293Z,27.60
2019-05-15T13:05:39.290Z,27.90
2019-05-15T13:08:08.429Z,27.40
2019-05-15T13:10:38.419Z,27.80
2019-05-15T13:13:09.596Z,27.80
2019-05-15T13:15:40.906Z,28.70
2019-05-15T13:18:12.819Z,28.70
2019-05-15T13:20:38.363Z,28.30
2019-05-15T13:23:08.615Z,27.40
2019-05-15T13:25:39.520Z,27.60
2019-05-15T13:28:08.900Z,27.50
2019-05-15T13:30:41.058Z,27.70
2019-05-15T13:33:09.899Z,28.00
2019-05-15T13:35:38.352Z,27.80
2019-05-15T13:38:09.541Z,28.40
2019-05-15T13:40:41.133Z,28.60
2019-05-15T13:46:20.611Z,27.20
2019-05-15T13:48:49.020Z,26.90
2019-05-15T13:51:18.248Z,27.10
2019-05-15T13:53:48.983Z,27.50
2019-05-15T13:56:18.241Z,27.40
2019-05-15T13:58:48.089Z,27.60
2019-05-15T14:01:19.254Z,27.80
2019-05-15T14:03:48.256Z,26.40
2019-05-15T14:06:19.144Z,26.90
2019-05-15T14:08:48.795Z,26.80
2019-05-15T14:11:21.243Z,25.80
2019-05-15T14:13:48.587Z,26.40
2019-05-15T14:16:19.259Z,25.60
2019-05-15T14:18:48.067Z,26.50
2019-05-15T14:21:18.453Z,25.60
2019-05-15T14:23:47.886Z,26.40
2019-05-15T14:26:20.335Z,26.10
2019-05-15T14:28:48.082Z,25.80
2019-05-15T14:31:18.275Z,27.40
2019-05-15T14:33:48.756Z,26.00
2019-05-15T14:36:18.484Z,26.00
2019-05-15T14:38:48.489Z,26.50
2019-05-15T14:41:19.012Z,26.70
2019-05-15T14:43:48.455Z,26.60
2019-05-15T14:46:18.538Z,26.40
2019-05-15T14:48:49.024Z,27.10
2019-05-15T14:51:19.211Z,27.40
2019-05-15T14:53:49.040Z,28.00
2019-05-15T14:56:18.537Z,28.20
2019-05-15T14:58:48.028Z,28.00
2019-05-15T15:01:18.484Z,27.40
2019-05-15T15:03:48.820Z,28.00
2019-05-15T15:06:18.185Z,27.80
2019-05-15T15:08:48.753Z,27.90
2019-05-15T15:11:17.961Z,28.00
2019-05-15T15:13:46.518Z,28.00
2019-05-15T15:16:14.946Z,28.60
2019-05-15T15:18:43.653Z,28.60
2019-05-15T15:21:12.163Z,28.80
2019-05-15T15:23:40.626Z,28.60
2019-05-15T15:26:09.504Z,29.20
2019-05-15T15:28:40.226Z,29.30
2019-05-15T15:31:08.693Z,29.80
2019-05-15T15:33:39.252Z,29.80
2019-05-15T15:36:08.806Z,29.00
2019-05-15T15:38:43.394Z,29.10
2019-05-15T15:41:08.557Z,29.60
2019-05-15T15:43:38.764Z,29.40
2019-05-15T15:46:08.622Z,29.50
2019-05-15T15:48:39.097Z,30.10
2019-05-15T15:51:09.099Z,29.80
2019-05-15T15:53:39.089Z,30.00
2019-05-15T15:56:10.362Z,29.80
2019-05-15T15:58:38.113Z,29.40
2019-05-15T16:01:08.834Z,28.80
2019-05-15T16:03:38.043Z,29.10
2019-05-15T16:06:06.924Z,29.30
2019-05-15T16:08:48.085Z,29.30
2019-05-15T16:11:07.955Z,29.60
2019-05-15T16:13:35.780Z,30.00
2019-05-15T16:16:04.557Z,30.00
2019-05-15T16:18:33.332Z,30.20
2019-05-15T16:21:02.029Z,29.90
2019-05-15T16:23:30.487Z,31.00
2019-05-15T16:26:00.998Z,30.10
2019-05-15T16:28:29.619Z,29.40
2019-05-15T16:30:58.734Z,29.40
2019-05-15T16:33:28.372Z,29.00
2019-05-15T16:35:58.058Z,29.30
2019-05-15T16:38:28.369Z,29.00
2019-05-15T16:40:58.281Z,28.00
2019-05-15T16:43:28.621Z,28.10
2019-05-15T16:45:58.701Z,27.60
2019-05-15T16:48:29.298Z,27.20
2019-05-15T16:50:58.156Z,26.90
2019-05-15T16:53:28.826Z,27.40
2019-05-15T16:55:58.664Z,27.70
2019-05-15T16:58:29.643Z,27.30
2019-05-15T17:00:58.552Z,27.90
2019-05-15T17:03:28.890Z,28.40
2019-05-15T17:05:58.803Z,28.70
2019-05-15T17:08:28.831Z,28.70
2019-05-15T17:10:58.673Z,28.60
2019-05-15T17:13:28.680Z,28.90
2019-05-15T17:15:58.422Z,29.00
2019-05-15T17:18:27.290Z,28.20
2019-05-15T17:20:58.826Z,28.40
2019-05-15T17:23:27.694Z,28.40
2019-05-15T17:25:58.103Z,27.60
2019-05-15T17:28:28.807Z,27.00
2019-05-15T17:30:58.362Z,27.80
2019-05-15T17:33:28.948Z,27.30
2019-05-15T17:35:58.139Z,27.70
2019-05-15T17:38:28.728Z,27.70
2019-05-15T17:40:57.856Z,27.70
2019-05-15T17:43:28.291Z,27.40
2019-05-15T17:45:58.271Z,26.80
2019-05-15T17:48:28.894Z,26.70
2019-05-15T17:50:59.175Z,26.80
2019-05-15T17:53:28.817Z,27.20
2019-05-15T17:55:58.568Z,26.70
2019-05-15T17:58:28.788Z,27.10
2019-05-15T18:00:59.417Z,26.50
2019-05-15T18:03:29.053Z,26.40
2019-05-15T18:05:59.124Z,26.90
2019-05-15T18:08:28.697Z,27.00
2019-05-15T18:10:59.584Z,27.20
2019-05-15T18:13:28.712Z,27.30
2019-05-15T18:16:02.868Z,27.40
2019-05-15T18:18:27.858Z,27.70
2019-05-15T18:20:58.150Z,27.40
2019-05-15T18:23:28.279Z,27.30
2019-05-15T18:25:59.973Z,27.40
2019-05-15T18:28:28.600Z,27.20
2019-05-15T18:30:58.840Z,27.40
2019-05-15T18:33:28.032Z,27.30
2019-05-15T18:35:58.063Z,27.50
2019-05-15T18:38:28.204Z,27.10
2019-05-15T18:40:58.308Z,27.00
2019-05-15T18:43:28.375Z,27.30
2019-05-15T18:45:58.469Z,26.70
2019-05-15T18:48:28.835Z,26.40
2019-05-15T18:50:58.732Z,26.40
2019-05-15T18:53:28.352Z,26.10
2019-05-15T18:55:58.337Z,26.60
2019-05-15T18:58:27.116Z,26.00
2019-05-15T19:00:57.804Z,26.10
2019-05-15T19:03:27.900Z,26.80
2019-05-15T19:05:58.374Z,26.40
2019-05-15T19:08:28.250Z,26.50
2019-05-15T19:10:58.480Z,26.60
2019-05-15T19:13:28.256Z,26.60
2019-05-15T19:15:57.968Z,26.60
2019-05-15T19:18:27.952Z,26.80
2019-05-15T19:20:58.599Z,26.90
2019-05-15T19:23:27.323Z,27.00
2019-05-15T19:25:57.942Z,27.20
2019-05-15T19:28:28.527Z,27.20
2019-05-15T19:30:58.593Z,27.40
2019-05-15T19:33:36.476Z,27.50
2019-05-15T19:35:57.191Z,27.50
2019-05-15T19:38:27.814Z,27.80
2019-05-15T19:41:02.316Z,28.00
2019-05-15T19:43:28.466Z,28.10
2019-05-15T19:45:58.352Z,27.90
2019-05-15T19:48:26.952Z,28.00
2019-05-15T19:50:58.132Z,28.20
2019-05-15T19:53:28.182Z,28.10
2019-05-15T19:55:57.972Z,28.40
2019-05-15T19:58:28.475Z,28.20
2019-05-15T20:00:56.568Z,28.40
2019-05-15T20:03:25.392Z,28.50
2019-05-15T20:05:54.143Z,28.60
2019-05-15T20:08:22.868Z,28.80
2019-05-15T20:10:51.311Z,28.90
2019-05-15T20:13:20.153Z,28.90
2019-05-15T20:15:49.299Z,29.20
2019-05-15T20:18:18.411Z,29.30
2019-05-15T20:20:47.887Z,29.30
2019-05-15T20:23:18.424Z,29.70
2019-05-15T20:25:46.670Z,29.70
2019-05-15T20:28:15.158Z,29.90
2019-05-15T20:30:43.889Z,29.80
2019-05-15T20:33:12.641Z,30.00
2019-05-15T20:35:41.084Z,30.10
2019-05-15T20:38:09.634Z,30.10
2019-05-15T20:40:38.175Z,30.50
2019-05-15T20:43:08.225Z,30.50
2019-05-15T20:45:37.243Z,30.70
2019-05-15T20:48:05.763Z,31.20
2019-05-15T20:50:34.772Z,31.20
2019-05-15T20:53:03.347Z,31.60
2019-05-15T20:55:32.253Z,31.50
2019-05-15T20:58:01.027Z,31.70
2019-05-15T21:00:29.474Z,31.50
2019-05-15T21:02:58.043Z,31.90
2019-05-15T21:05:27.786Z,31.80
2019-05-15T21:07:58.922Z,31.90
2019-05-15T21:10:27.435Z,32.30
2019-05-15T21:12:55.934Z,32.20
2019-05-15T21:15:24.660Z,32.30
2019-05-15T21:17:59.584Z,32.40
2019-05-15T21:20:23.372Z,32.30
2019-05-15T21:22:51.872Z,32.50
2019-05-15T21:25:20.488Z,32.60
2019-05-15T21:27:49.205Z,32.60
2019-05-15T21:30:19.277Z,32.60
2019-05-15T21:32:49.433Z,32.70
2019-05-15T21:35:18.472Z,32.60
2019-05-15T21:37:48.879Z,32.90
2019-05-15T21:40:17.695Z,32.70
2019-05-15T21:42:49.291Z,32.80
2019-05-15T21:45:18.273Z,32.80
2019-05-15T21:47:47.238Z,33.00
2019-05-15T21:50:15.943Z,32.90
2019-05-15T21:52:44.767Z,32.70
2019-05-15T21:55:13.356Z,33.00
2019-05-15T21:57:43.397Z,33.10
2019-05-15T22:00:25.727Z,32.40
2019-05-15T22:02:54.302Z,32.50
2019-05-15T22:05:23.156Z,32.60
2019-05-15T22:07:51.607Z,32.70
2019-05-15T22:10:20.294Z,32.30
2019-05-15T22:12:48.824Z,32.60
2019-05-15T22:15:18.957Z,32.70
2019-05-15T22:17:49.414Z,33.00
2019-05-15T22:20:18.915Z,32.50
2019-05-15T22:22:50.372Z,32.60
2019-05-15T22:25:18.993Z,32.70
2019-05-15T22:27:48.746Z,33.00
2019-05-15T22:30:18.399Z,33.30
2019-05-15T22:32:49.823Z,34.80
2019-05-15T22:35:19.128Z,36.00
2019-05-15T22:37:49.391Z,37.00
2019-05-15T22:40:18.596Z,38.70
2019-05-15T22:42:48.594Z,40.70
2019-05-15T22:45:18.933Z,42.30
2019-05-15T22:47:48.304Z,43.50
2019-05-15T22:50:18.882Z,44.10
2019-05-15T22:52:49.300Z,44.50
2019-05-15T22:55:18.457Z,45.20
2019-05-15T22:57:48.114Z,45.50
2019-05-15T23:00:18.236Z,44.60
2019-05-15T23:02:48.848Z,45.00
2019-05-15T23:05:25.066Z,45.00
2019-05-15T23:07:48.477Z,45.40
2019-05-15T23:10:17.658Z,45.50
2019-05-15T23:12:48.517Z,45.80
2019-05-15T23:15:18.854Z,45.80
2019-05-15T23:17:48.728Z,46.00
2019-05-15T23:20:18.029Z,46.00
2019-05-15T23:22:46.547Z,46.00
2019-05-15T23:25:15.236Z,46.20
2019-05-15T23:27:43.688Z,45.80
2019-05-15T23:30:12.521Z,45.90
2019-05-15T23:32:40.993Z,45.70
2019-05-15T23:35:09.569Z,45.70
2019-05-15T23:37:39.169Z,45.90
2019-05-15T23:40:08.826Z,46.20
2019-05-15T23:42:39.134Z,46.30
2019-05-15T23:45:08.096Z,46.70
2019-05-15T23:47:38.364Z,47.40
2019-05-15T23:50:07.575Z,46.00
2019-05-15T23:52:38.273Z,46.00
2019-05-15T23:55:08.538Z,46.10
2019-05-15T23:57:39.306Z,46.20
